Time;durP1;ratioP1;P1;durP2;ratioP2;P2;SDS_P1;SDS_P2;PMS_P1;PMS_P2;Temp;Humidity;BMP_temperature;BMP_pressure;BME280_temperature;BME280_humidity;BME280_pressure;Samples;Min_cycle;Max_cycle;Signal;HPM_P1;HPM_P2
2022/05/19 00:00:00;;;;;;;;;12.50;11.25;;;;;24.27;59.06;100975.56;5118289;27;45068;-83
2022/05/19 00:02:25;;;;;;;;;12.50;12.50;;;;;24.07;58.64;100946.38;5113954;27;45129;-81
2022/05/19 00:04:51;;;;;;;;;16.00;13.25;;;;;24.08;58.53;100942.78;5124549;27;46289;-82
2022/05/19 00:07:17;;;;;;;;;13.50;12.50;;;;;24.29;58.68;100979.13;5110459;27;44941;-82
2022/05/19 00:09:44;;;;;;;;;13.75;13.00;;;;;24.15;58.39;100952.53;5121931;27;45211;-81
2022/05/19 00:12:14;;;;;;;;;13.50;12.75;;;;;24.21;58.28;100968.50;5102785;27;45368;-82
2022/05/19 00:14:39;;;;;;;;;15.75;12.75;;;;;24.31;58.88;100977.28;5110328;27;45798;-82
2022/05/19 00:17:06;;;;;;;;;13.75;13.25;;;;;24.19;59.06;100955.13;5109304;27;45587;-82
2022/05/19 00:19:34;;;;;;;;;14.50;12.25;;;;;24.05;58.90;100941.06;5105401;27;45178;-82
2022/05/19 00:21:59;;;;;;;;;16.25;16.00;;;;;23.79;59.47;100903.94;5115730;27;45425;-81
2022/05/19 00:24:25;;;;;;;;;20.00;18.00;;;;;24.19;59.04;100976.59;5115303;27;45262;-82
2022/05/19 00:26:50;;;;;;;;;16.50;16.50;;;;;24.04;59.65;100960.78;5119970;27;45279;-82
2022/05/19 00:29:16;;;;;;;;;16.75;16.25;;;;;23.81;59.41;100925.38;5119370;27;45180;-82
2022/05/19 00:31:41;;;;;;;;;16.25;15.50;;;;;23.79;59.94;100929.84;5117848;27;45168;-82
2022/05/19 00:34:07;;;;;;;;;18.50;18.00;;;;;23.89;59.56;100945.81;5112188;27;45470;-82
2022/05/19 00:36:33;;;;;;;;;19.75;17.50;;;;;23.73;60.12;100924.59;5113863;27;45113;-82
2022/05/19 00:38:59;;;;;;;;;22.00;21.00;;;;;23.91;60.36;100949.34;5130758;27;45091;-82
2022/05/19 00:41:24;;;;;;;;;22.50;21.00;;;;;23.80;59.92;100934.34;5110467;27;45351;-82
2022/05/19 00:44:16;;;;;;;;;19.25;19.00;;;;;23.89;60.35;100955.63;5131437;27;45284;-82
2022/05/19 00:46:44;;;;;;;;;17.50;17.00;;;;;23.89;60.59;100961.00;5108787;27;45650;-81
2022/05/19 00:49:21;;;;;;;;;14.75;14.50;;;;;23.63;60.33;100911.34;5119556;27;45044;-82
2022/05/19 00:51:57;;;;;;;;;10.50;10.50;;;;;23.88;60.51;100948.50;5109694;27;45331;-83
2022/05/19 00:54:28;;;;;;;;;16.75;15.50;;;;;23.81;60.51;100944.16;5120273;27;45450;-83
2022/05/19 00:57:03;;;;;;;;;19.25;18.50;;;;;23.75;60.62;100944.28;5114789;27;45727;-82
2022/05/19 00:59:40;;;;;;;;;17.00;15.75;;;;;23.48;61.09;100900.81;5112372;27;45110;-83
2022/05/19 01:02:10;;;;;;;;;17.75;16.50;;;;;23.27;61.40;100875.22;5127006;27;45062;-82
2022/05/19 01:04:57;;;;;;;;;20.25;19.50;;;;;23.60;61.15;100937.31;5122141;27;45421;-82
2022/05/19 01:07:32;;;;;;;;;17.00;16.00;;;;;23.31;61.55;100890.38;5108242;27;45185;-83
2022/05/19 01:09:58;;;;;;;;;20.50;19.75;;;;;23.27;61.61;100888.63;5111367;27;45126;-83
2022/05/19 01:12:26;;;;;;;;;17.25;15.50;;;;;23.47;61.90;100925.88;5112190;27;45317;-83
2022/05/19 01:14:51;;;;;;;;;18.00;16.75;;;;;23.14;62.19;100879.88;5118600;27;45344;-82
2022/05/19 01:17:17;;;;;;;;;16.25;14.00;;;;;23.34;61.87;100910.88;5118615;27;45243;-83
2022/05/19 01:19:45;;;;;;;;;13.00;12.25;;;;;23.41;62.14;100932.22;5128365;27;44781;-86
2022/05/19 01:22:16;;;;;;;;;16.25;16.00;;;;;23.37;62.44;100927.81;5107932;27;45174;-84
2022/05/19 01:25:12;;;;;;;;;15.00;14.00;;;;;23.35;62.55;100918.00;5110427;27;45730;-85
2022/05/19 01:27:38;;;;;;;;;14.75;14.50;;;;;23.08;62.71;100879.09;5104668;27;45182;-86
2022/05/19 01:30:08;;;;;;;;;18.00;17.00;;;;;23.06;62.81;100873.75;5111339;27;45220;-83
2022/05/19 01:32:33;;;;;;;;;15.75;15.25;;;;;22.94;62.88;100862.31;5109091;27;45616;-84
2022/05/19 01:34:59;;;;;;;;;16.50;16.00;;;;;23.08;62.64;100879.09;5114141;27;45106;-85
2022/05/19 01:37:25;;;;;;;;;13.50;12.50;;;;;23.27;63.01;100923.50;5122231;27;45083;-82
2022/05/19 01:40:02;;;;;;;;;14.50;14.00;;;;;23.10;63.16;100896.94;5110721;27;45029;-82
2022/05/19 01:42:33;;;;;;;;;14.50;14.25;;;;;23.27;62.89;100923.50;5125585;27;45107;-83
2022/05/19 01:45:07;;;;;;;;;17.00;15.75;;;;;23.27;63.17;100922.63;5110837;27;46114;-82
2022/05/19 01:47:35;;;;;;;;;15.25;14.75;;;;;23.25;62.97;100927.09;5119661;27;45280;-83
2022/05/19 01:50:10;;;;;;;;;18.75;18.00;;;;;23.24;63.06;100918.16;5124396;27;45042;-83
2022/05/19 01:53:09;;;;;;;;;16.00;14.75;;;;;22.97;63.60;100875.69;5110097;27;45268;-85
2022/05/19 01:56:06;;;;;;;;;18.75;16.25;;;;;23.22;63.51;100925.38;5097952;27;47452;-84
2022/05/19 01:58:49;;;;;;;;;15.75;13.75;;;;;22.94;63.74;100881.97;5079089;27;45565;-82
2022/05/19 02:01:19;;;;;;;;;13.75;13.00;;;;;23.02;63.59;100895.28;5122736;27;44978;-85
2022/05/19 02:03:53;;;;;;;;;14.00;14.00;;;;;23.16;63.67;100915.63;5109249;27;45254;-86
2022/05/19 02:06:31;;;;;;;;;14.00;14.00;;;;;23.03;63.72;100892.56;5107152;27;46686;-84
2022/05/19 02:09:17;;;;;;;;;14.50;13.50;;;;;23.12;63.51;100913.88;5133369;27;45624;-82
2022/05/19 02:11:47;;;;;;;;;12.25;12.00;;;;;23.11;63.75;100905.88;5123678;27;45067;-86
2022/05/19 02:14:18;;;;;;;;;16.50;16.00;;;;;23.14;63.73;100920.09;5113535;27;45172;-86
2022/05/19 02:16:44;;;;;;;;;16.25;16.25;;;;;22.95;63.91;100894.44;5126001;27;45693;-81
2022/05/19 02:19:14;;;;;;;;;17.75;16.50;;;;;22.91;64.29;100887.38;5131418;27;45256;-81
2022/05/19 02:21:39;;;;;;;;;15.25;15.25;;;;;22.88;64.08;100873.97;5112281;27;45076;-82
2022/05/19 02:24:08;;;;;;;;;14.00;14.00;;;;;22.88;64.17;100880.25;5127681;27;45221;-82
2022/05/19 02:26:35;;;;;;;;;17.00;16.25;;;;;23.04;64.23;100910.41;5130400;27;46019;-83
2022/05/19 02:29:08;;;;;;;;;14.00;13.75;;;;;22.95;64.68;100902.50;5110753;27;45596;-82
2022/05/19 02:31:34;;;;;;;;;15.00;15.00;;;;;22.78;64.56;100872.34;5112586;27;45306;-83
2022/05/19 02:34:00;;;;;;;;;17.50;16.00;;;;;22.91;64.56;100908.84;5094796;27;45186;-82
2022/05/19 02:36:25;;;;;;;;;15.50;15.25;;;;;22.94;64.70;100914.13;5106895;27;47336;-82
2022/05/19 02:38:51;;;;;;;;;18.75;18.00;;;;;22.84;64.94;100893.69;5101106;27;45056;-81
2022/05/19 02:41:16;;;;;;;;;14.50;14.50;;;;;22.76;64.62;100887.53;5116736;27;45110;-82
2022/05/19 02:43:42;;;;;;;;;18.00;17.00;;;;;22.79;64.58;100883.03;5109511;27;45152;-82
2022/05/19 02:46:07;;;;;;;;;16.00;14.50;;;;;22.90;64.63;100907.91;5109948;27;45918;-83
2022/05/19 02:48:33;;;;;;;;;18.00;17.75;;;;;22.94;64.77;100911.44;5093540;27;45157;-82
2022/05/19 02:51:00;;;;;;;;;16.00;15.00;;;;;22.94;65.27;100910.56;5125336;27;45335;-81
2022/05/19 02:53:26;;;;;;;;;15.75;15.25;;;;;22.97;65.33;100914.09;5113769;27;45433;-82
2022/05/19 02:55:51;;;;;;;;;16.00;15.75;;;;;22.94;65.12;100905.22;5131517;27;45972;-81
2022/05/19 02:58:17;;;;;;;;;14.25;14.00;;;;;23.00;65.13;100924.75;5112883;27;45107;-82
2022/05/19 03:00:45;;;;;;;;;16.50;14.75;;;;;23.00;65.07;100921.19;5113608;27;45254;-82
2022/05/19 03:03:10;;;;;;;;;14.25;14.25;;;;;22.64;65.08;100868.03;5125048;27;45130;-82
2022/05/19 03:05:36;;;;;;;;;18.25;15.50;;;;;22.65;65.05;100866.25;5112171;27;46308;-81
2022/05/19 03:08:02;;;;;;;;;14.25;14.25;;;;;22.72;65.02;100883.16;5125100;27;45292;-82
2022/05/19 03:10:28;;;;;;;;;14.25;13.75;;;;;22.94;65.28;100927.53;5125115;27;44960;-82
2022/05/19 03:12:55;;;;;;;;;17.25;16.00;;;;;22.92;65.30;100922.22;5126988;27;45153;-82
2022/05/19 03:15:20;;;;;;;;;20.00;18.25;;;;;22.71;65.56;100886.72;5112291;27;45754;-82
2022/05/19 03:17:45;;;;;;;;;16.00;15.00;;;;;22.55;65.57;100860.13;5114019;27;45028;-82
2022/05/19 03:20:12;;;;;;;;;14.00;13.25;;;;;22.84;65.76;100901.72;5111455;27;45435;-82
2022/05/19 03:22:39;;;;;;;;;16.50;16.50;;;;;22.65;65.64;100880.53;5128958;27;45310;-81
2022/05/19 03:25:05;;;;;;;;;15.00;15.00;;;;;22.81;65.70;100917.88;5125846;27;45648;-82
2022/05/19 03:27:31;;;;;;;;;17.50;17.00;;;;;22.53;65.98;100864.63;5112201;27;45217;-82
2022/05/19 03:29:57;;;;;;;;;17.50;16.00;;;;;22.62;66.22;100885.94;5125512;27;45326;-82
2022/05/19 03:32:22;;;;;;;;;19.75;19.75;;;;;22.64;66.06;100892.16;5112037;27;45303;-82
2022/05/19 03:34:48;;;;;;;;;18.00;17.50;;;;;22.66;66.17;100893.03;5122376;27;45634;-81
2022/05/19 03:37:13;;;;;;;;;16.25;15.50;;;;;22.63;66.23;100901.09;5119365;27;45466;-82
2022/05/19 03:39:39;;;;;;;;;15.75;15.75;;;;;22.40;66.29;100860.31;5127626;27;45128;-82
2022/05/19 03:42:06;;;;;;;;;17.75;16.25;;;;;22.66;66.48;100903.75;5111190;27;45067;-82
2022/05/19 03:44:32;;;;;;;;;15.00;15.00;;;;;22.67;66.30;100910.00;5127433;27;45375;-83
2022/05/19 03:46:58;;;;;;;;;14.25;13.50;;;;;22.54;66.50;100886.94;5124250;27;45541;-82
2022/05/19 03:49:23;;;;;;;;;14.75;13.75;;;;;22.56;66.45;100902.09;5117888;27;45514;-82
2022/05/19 03:51:48;;;;;;;;;16.50;14.75;;;;;22.49;66.36;100889.66;5113418;27;45017;-82
2022/05/19 03:54:14;;;;;;;;;16.00;16.00;;;;;22.40;66.49;100873.69;5122085;27;45302;-81
2022/05/19 03:56:40;;;;;;;;;16.25;15.50;;;;;22.56;66.61;100906.53;5118527;27;45087;-83
2022/05/19 03:59:05;;;;;;;;;13.50;13.50;;;;;22.63;66.95;100925.22;5105196;27;45180;-85
2022/05/19 04:01:31;;;;;;;;;13.50;13.00;;;;;22.48;66.94;100889.69;5112797;27;45021;-83
2022/05/19 04:03:56;;;;;;;;;17.75;17.00;;;;;22.29;67.09;100860.44;5126434;27;45697;-83
2022/05/19 04:06:22;;;;;;;;;16.00;15.75;;;;;22.35;67.22;100870.19;5120316;27;45036;-82
2022/05/19 04:08:48;;;;;;;;;14.75;14.75;;;;;22.56;66.62;100917.25;5132441;27;45145;-83
2022/05/19 04:11:13;;;;;;;;;17.00;16.25;;;;;22.45;67.16;100897.75;5124931;27;45455;-82
2022/05/19 04:13:39;;;;;;;;;15.50;15.50;;;;;22.30;67.06;100866.69;5131627;27;45997;-82
2022/05/19 04:16:04;;;;;;;;;17.50;17.25;;;;;22.65;67.95;100933.22;5128670;27;45090;-84
2022/05/19 04:18:29;;;;;;;;;17.50;17.00;;;;;22.31;67.21;100861.31;5128242;27;45851;-83
2022/05/19 04:20:55;;;;;;;;;17.00;17.00;;;;;22.57;67.41;100909.22;5125977;27;45115;-82
2022/05/19 04:23:21;;;;;;;;;15.00;15.00;;;;;22.38;67.28;100867.50;5111689;27;45638;-82
2022/05/19 04:25:47;;;;;;;;;19.00;18.25;;;;;22.41;67.61;100870.13;5125578;27;45005;-82
2022/05/19 04:28:12;;;;;;;;;14.75;14.00;;;;;22.60;67.29;100902.94;5092819;27;45250;-84
2022/05/19 04:30:38;;;;;;;;;15.50;14.00;;;;;22.61;67.11;100912.72;5114118;27;44873;-83
2022/05/19 04:33:04;;;;;;;;;16.50;15.00;;;;;22.43;67.20;100880.84;5124969;27;45687;-82
2022/05/19 04:35:29;;;;;;;;;17.75;16.75;;;;;22.41;67.17;100883.50;5129462;27;45620;-82
2022/05/19 04:38:00;;;;;;;;;16.75;16.00;;;;;22.45;67.42;100887.03;5110894;27;45295;-84
2022/05/19 04:40:26;;;;;;;;;16.25;14.75;;;;;22.69;67.47;100928.72;5119978;27;45117;-83
2022/05/19 04:42:53;;;;;;;;;18.25;16.50;;;;;22.59;67.28;100923.47;5121046;27;46015;-83
2022/05/19 04:45:18;;;;;;;;;17.00;16.75;;;;;22.69;67.56;100936.75;5111593;27;45506;-86
2022/05/19 04:47:44;;;;;;;;;14.25;14.00;;;;;22.38;67.62;100875.53;5116917;27;45273;-83
2022/05/19 04:50:10;;;;;;;;;19.50;18.75;;;;;22.54;67.30;100914.59;5110400;27;45189;-84
2022/05/19 04:52:36;;;;;;;;;14.00;14.00;;;;;22.73;67.62;100944.75;5123568;27;45732;-83
2022/05/19 04:55:03;;;;;;;;;14.75;14.75;;;;;22.76;67.70;100942.03;5103388;27;45346;-82
2022/05/19 04:57:28;;;;;;;;;16.50;15.25;;;;;22.49;67.52;100895.03;5124588;27;45335;-83
2022/05/19 04:59:53;;;;;;;;;16.75;16.25;;;;;22.76;67.52;100935.78;5124333;27;45183;-87
2022/05/19 05:02:19;;;;;;;;;15.25;14.50;;;;;22.75;67.16;100950.97;5119559;27;45304;-87
2022/05/19 05:04:44;;;;;;;;;19.25;19.25;;;;;22.76;66.67;100959.88;5125338;27;45195;-83
2022/05/19 05:07:09;;;;;;;;;17.00;17.00;;;;;22.96;66.91;100999.91;5129663;27;45190;-83
2022/05/19 05:09:35;;;;;;;;;18.25;17.50;;;;;22.94;66.32;101036.56;5091975;27;45083;-87
2022/05/19 05:12:01;;;;;;;;;16.25;15.50;;;;;23.11;66.08;101030.09;5125160;27;46053;-82
2022/05/19 05:14:26;;;;;;;;;16.00;14.75;;;;;22.81;65.51;100940.19;5120544;27;45228;-81
2022/05/19 05:16:53;;;;;;;;;17.25;17.25;;;;;23.20;65.06;101007.63;5129090;27;45317;-81
2022/05/19 05:19:22;;;;;;;;;18.75;17.75;;;;;23.05;65.31;100997.09;5129227;27;45014;-81
2022/05/19 05:21:50;;;;;;;;;15.25;15.25;;;;;23.06;64.61;100989.06;5125547;27;45302;-82
2022/05/19 05:24:16;;;;;;;;;13.75;13.25;;;;;23.16;64.57;100995.19;5114012;27;45241;-83
2022/05/19 05:26:42;;;;;;;;;13.25;13.25;;;;;23.02;64.53;100971.22;5089777;27;45386;-82
2022/05/19 05:29:07;;;;;;;;;17.25;16.75;;;;;23.30;64.49;101003.03;5118636;27;45200;-82
2022/05/19 05:31:33;;;;;;;;;14.00;13.25;;;;;23.10;64.88;100958.63;5118542;27;45238;-83
2022/05/19 05:33:58;;;;;;;;;16.75;16.25;;;;;23.25;64.92;100978.97;5097821;27;44998;-83
2022/05/19 05:36:24;;;;;;;;;17.25;16.00;;;;;23.16;64.31;100969.25;5109381;27;45214;-82
2022/05/19 05:38:49;;;;;;;;;19.00;17.50;;;;;23.27;64.50;100976.25;5100810;27;45314;-83
2022/05/19 05:41:16;;;;;;;;;16.00;15.75;;;;;23.55;64.28;101027.72;5125255;27;45559;-82
2022/05/19 05:43:41;;;;;;;;;17.25;16.00;;;;;23.54;64.68;101021.44;5130257;27;45512;-82
2022/05/19 05:46:14;;;;;;;;;14.25;13.75;;;;;23.08;64.59;100935.41;5127830;27;45094;-82
2022/05/19 05:48:40;;;;;;;;;14.00;14.00;;;;;23.40;64.17;100985.91;5113873;27;45060;-83
2022/05/19 05:51:08;;;;;;;;;16.25;13.75;;;;;23.56;63.77;100992.81;5107279;27;46173;-81
2022/05/19 05:53:35;;;;;;;;;15.50;14.75;;;;;23.74;63.92;101017.63;5110398;27;45562;-82
2022/05/19 05:56:02;;;;;;;;;20.75;18.25;;;;;23.53;64.53;100979.44;5110750;27;45046;-82
2022/05/19 05:58:28;;;;;;;;;17.00;15.25;;;;;23.70;63.73;100991.78;5108788;27;45009;-81
2022/05/19 06:00:53;;;;;;;;;16.00;16.00;;;;;23.73;64.48;100989.91;5109702;27;45580;-81
2022/05/19 06:03:19;;;;;;;;;15.00;13.00;;;;;23.86;64.05;101012.97;5117093;27;45210;-81
2022/05/19 06:05:44;;;;;;;;;15.25;15.00;;;;;23.86;64.09;101018.34;5112856;27;45257;-82
2022/05/19 06:08:10;;;;;;;;;15.25;14.00;;;;;23.87;64.35;101014.72;5117878;27;45067;-81
2022/05/19 06:10:36;;;;;;;;;14.75;14.25;;;;;23.93;63.88;101028.06;5114264;27;45891;-81
2022/05/19 06:13:03;;;;;;;;;15.50;14.50;;;;;23.78;63.13;100995.19;5123850;27;45712;-81
2022/05/19 06:15:29;;;;;;;;;16.75;15.00;;;;;23.97;63.30;101025.31;5106996;27;45218;-82
2022/05/19 06:17:54;;;;;;;;;11.50;10.75;;;;;23.96;64.11;101012.81;5110427;27;45004;-82
2022/05/19 06:20:20;;;;;;;;;14.50;14.50;;;;;23.75;63.99;100979.16;5118569;27;45233;-82
2022/05/19 06:22:46;;;;;;;;;17.75;17.00;;;;;23.88;64.01;100996.81;5115802;27;45238;-81
2022/05/19 06:25:16;;;;;;;;;17.00;16.50;;;;;23.94;63.98;100997.63;5109643;27;45130;-82
2022/05/19 06:27:42;;;;;;;;;17.25;15.25;;;;;23.98;64.20;100997.56;5109287;27;45118;-81
2022/05/19 06:30:08;;;;;;;;;18.50;16.00;;;;;24.15;62.54;101022.34;5119281;27;45530;-83
2022/05/19 06:32:37;;;;;;;;;14.25;14.25;;;;;24.11;63.16;101021.50;5129223;27;45241;-81
2022/05/19 06:35:04;;;;;;;;;15.00;15.00;;;;;23.76;62.78;100957.66;5129049;27;45127;-82
2022/05/19 06:37:30;;;;;;;;;13.50;13.50;;;;;23.99;62.77;101007.38;5128968;27;45172;-82
2022/05/19 06:39:55;;;;;;;;;16.50;16.50;;;;;23.94;62.39;101000.31;5129213;27;45302;-82
2022/05/19 06:42:21;;;;;;;;;19.25;17.25;;;;;24.02;62.50;101010.03;5109542;27;45028;-82
2022/05/19 06:44:47;;;;;;;;;16.25;16.25;;;;;23.92;62.44;100995.88;5129368;27;45026;-83
2022/05/19 06:47:15;;;;;;;;;13.50;12.75;;;;;23.86;62.60;100977.19;5126999;27;45024;-82
2022/05/19 06:49:46;;;;;;;;;16.50;14.50;;;;;24.09;62.32;101019.78;5130284;27;46079;-82
2022/05/19 06:52:13;;;;;;;;;17.50;14.25;;;;;24.23;62.50;101041.00;5132866;27;45590;-82
2022/05/19 06:54:49;;;;;;;;;16.25;15.00;;;;;24.22;62.69;101032.06;5113641;27;45316;-84
2022/05/19 06:57:16;;;;;;;;;17.00;15.50;;;;;24.07;63.10;100997.41;5113890;27;45162;-82
2022/05/19 06:59:42;;;;;;;;;17.50;17.00;;;;;23.97;62.45;100979.69;5126020;27;45641;-81
2022/05/19 07:02:09;;;;;;;;;16.75;16.50;;;;;24.18;62.23;101012.41;5132603;27;45510;-83
2022/05/19 07:04:35;;;;;;;;;16.75;15.75;;;;;24.31;62.42;101033.72;5132615;27;45041;-82
2022/05/19 07:07:02;;;;;;;;;17.00;17.00;;;;;24.20;62.02;101015.97;5132739;27;45281;-81
2022/05/19 07:09:27;;;;;;;;;16.75;16.25;;;;;24.02;61.93;100984.06;5132425;27;45242;-82
2022/05/19 07:11:53;;;;;;;;;12.75;12.75;;;;;24.27;61.66;101043.59;5115266;27;45284;-82
2022/05/19 07:14:19;;;;;;;;;14.75;14.25;;;;;24.01;62.51;101009.16;5093257;27;45227;-82
2022/05/19 07:16:48;;;;;;;;;15.50;15.50;;;;;24.02;62.19;101016.28;5111643;27;45292;-82
2022/05/19 07:21:57;;;;;;;;;19.00;17.25;;;;;23.83;62.28;100991.53;5117421;27;45207;-84
2022/05/19 07:24:23;;;;;;;;;15.75;15.25;;;;;23.76;62.15;100988.97;5121283;27;45056;-82
2022/05/19 07:26:52;;;;;;;;;14.50;14.50;;;;;23.74;61.82;101005.09;5128570;27;45114;-84
2022/05/19 07:29:18;;;;;;;;;18.00;17.25;;;;;23.89;62.99;101044.22;5119525;27;45793;-85
2022/05/19 07:31:44;;;;;;;;;22.25;19.00;;;;;23.88;62.44;101050.50;5115286;27;45177;-81
2022/05/19 07:34:11;;;;;;;;;17.25;17.00;;;;;23.69;62.53;101028.44;5114591;27;45062;-82
2022/05/19 07:36:37;;;;;;;;;15.25;15.25;;;;;23.61;63.31;101014.22;5119205;27;45082;-82
2022/05/19 07:39:02;;;;;;;;;16.25;15.50;;;;;23.74;63.55;101031.94;5111691;27;45573;-83
2022/05/19 07:41:29;;;;;;;;;17.25;16.75;;;;;23.89;62.96;101047.81;5110269;27;44921;-83
2022/05/19 07:43:55;;;;;;;;;17.25;16.75;;;;;23.64;63.30;100995.41;5111842;27;45232;-83
2022/05/19 07:46:21;;;;;;;;;19.25;19.25;;;;;23.72;62.89;101022.13;5110864;27;45152;-83
2022/05/19 07:48:46;;;;;;;;;17.75;17.50;;;;;23.75;63.12;101014.06;5111336;27;45636;-83
2022/05/19 07:51:12;;;;;;;;;19.50;18.75;;;;;23.76;63.02;101018.50;5111110;27;45173;-82
2022/05/19 07:53:38;;;;;;;;;17.75;17.25;;;;;24.07;63.22;101062.75;5092672;27;45104;-85
2022/05/19 07:56:03;;;;;;;;;14.50;14.25;;;;;23.95;62.99;101030.72;5110878;27;45375;-82
2022/05/19 07:58:29;;;;;;;;;17.00;15.75;;;;;23.97;62.53;101030.69;5111281;27;45877;-83
2022/05/19 08:00:57;;;;;;;;;16.00;15.75;;;;;23.93;62.62;101008.38;5108565;27;45385;-82
2022/05/19 08:03:23;;;;;;;;;17.25;16.25;;;;;24.07;62.22;101010.84;5101943;27;45363;-85
2022/05/19 08:05:49;;;;;;;;;15.75;15.00;;;;;24.50;62.17;101071.94;5120209;27;45201;-81
2022/05/19 08:08:15;;;;;;;;;15.50;14.50;;;;;24.44;62.46;101032.63;5122588;27;45252;-83
2022/05/19 08:10:40;;;;;;;;;16.00;15.75;;;;;24.38;62.14;101011.22;5124654;27;45057;-82
2022/05/19 08:15:49;;;;;;;;;17.00;15.50;;;;;24.67;61.00;101065.31;5111306;27;45230;-82
2022/05/19 08:18:18;;;;;;;;;15.25;15.00;;;;;24.95;61.13;101099.75;5110133;27;45713;-83
2022/05/19 08:20:47;;;;;;;;;16.25;15.25;;;;;24.96;60.42;101088.09;5111439;27;45500;-83
2022/05/19 08:23:19;;;;;;;;;15.00;15.00;;;;;25.03;60.17;101089.75;5092128;27;45077;-83
2022/05/19 08:25:45;;;;;;;;;16.00;16.00;;;;;24.98;60.51;101067.44;5125195;27;45181;-82
2022/05/19 08:28:14;;;;;;;;;15.50;15.50;;;;;25.00;59.85;101062.03;5116518;27;45220;-83
2022/05/19 08:30:47;;;;;;;;;16.25;15.25;;;;;25.04;60.14;101067.31;5118883;27;45128;-82
2022/05/19 08:33:13;;;;;;;;;19.00;16.75;;;;;25.31;60.30;101116.13;5111833;27;45145;-81
2022/05/19 08:35:39;;;;;;;;;17.75;17.25;;;;;24.98;60.35;101066.56;5130955;27;45394;-82
2022/05/19 08:38:04;;;;;;;;;18.00;17.75;;;;;25.00;60.08;101094.31;5130966;27;45413;-82
2022/05/19 08:40:37;;;;;;;;;16.00;16.00;;;;;24.99;59.94;101109.56;5130560;27;44992;-82
2022/05/19 08:43:02;;;;;;;;;14.25;14.00;;;;;24.93;60.81;101093.53;5131277;27;45221;-82
2022/05/19 08:45:34;;;;;;;;;15.75;14.75;;;;;25.23;59.51;101145.88;5130789;27;45067;-82
2022/05/19 08:48:24;;;;;;;;;13.25;13.25;;;;;25.08;59.44;101143.50;5130572;27;45288;-82
2022/05/19 08:51:00;;;;;;;;;15.50;14.25;;;;;25.16;59.23;101180.06;5131311;27;45622;-82
2022/05/19 08:53:29;;;;;;;;;16.75;14.50;;;;;24.82;59.35;101138.53;5113762;27;45364;-82
2022/05/19 08:56:00;;;;;;;;;13.25;13.25;;;;;25.05;58.84;101182.06;5110140;27;45217;-81
2022/05/19 08:58:43;;;;;;;;;14.75;14.75;;;;;25.04;59.18;101166.84;5091129;27;47594;-82
2022/05/19 09:01:37;;;;;;;;;16.50;16.00;;;;;25.27;58.86;101187.06;5090815;27;45697;-82
2022/05/19 09:04:44;;;;;;;;;15.00;14.00;;;;;25.45;59.19;101184.91;5079628;27;45373;-81
2022/05/19 09:10:41;;;;;;;;;14.50;14.50;;;;;25.80;57.15;101175.25;5112549;27;45454;-82
2022/05/19 09:13:16;;;;;;;;;16.00;15.00;;;;;25.90;57.25;101181.31;5111883;27;45153;-83
2022/05/19 09:15:44;;;;;;;;;12.00;11.75;;;;;25.84;56.61;101192.22;5130314;27;45044;-82
2022/05/19 09:18:12;;;;;;;;;10.75;10.50;;;;;25.64;56.22;101171.06;5110971;27;45722;-83
2022/05/19 09:20:45;;;;;;;;;14.25;12.75;;;;;25.56;55.88;101179.28;5130632;27;46095;-83
2022/05/19 09:23:11;;;;;;;;;13.00;11.00;;;;;25.51;56.35;101191.06;5130079;27;45119;-82
2022/05/19 09:25:43;;;;;;;;;8.75;8.50;;;;;25.36;55.75;101170.75;5111609;27;45119;-82
2022/05/19 09:28:12;;;;;;;;;10.00;10.00;;;;;25.34;55.83;101186.91;5130347;27;45071;-82
2022/05/19 09:30:39;;;;;;;;;9.00;8.25;;;;;25.21;55.58;101177.31;5130168;27;46269;-84
2022/05/19 09:33:27;;;;;;;;;9.25;9.25;;;;;25.33;55.26;101238.97;5129736;27;45555;-82
2022/05/19 09:35:58;;;;;;;;;7.75;7.75;;;;;25.29;55.28;101241.75;5115874;27;45123;-82
2022/05/19 09:38:48;;;;;;;;;8.25;8.00;;;;;25.24;55.89;101236.44;5130493;27;45102;-82
2022/05/19 09:41:28;;;;;;;;;7.00;7.00;;;;;25.08;55.45;101221.50;5109428;27;46260;-84
2022/05/19 09:43:56;;;;;;;;;8.75;8.75;;;;;25.19;55.22;101247.28;5112233;27;45845;-83
2022/05/19 09:46:22;;;;;;;;;9.25;9.25;;;;;25.13;55.46;101247.41;5107837;27;45492;-84
2022/05/19 09:49:04;;;;;;;;;11.50;10.75;;;;;25.26;55.25;101274.97;5109991;27;45040;-84
2022/05/19 09:51:39;;;;;;;;;13.75;11.75;;;;;25.00;54.92;101237.72;5102959;27;48505;-85
2022/05/19 09:54:04;;;;;;;;;16.00;16.00;;;;;25.06;55.21;101269.88;5121069;27;45301;-85
2022/05/19 09:56:43;;;;;;;;;17.00;17.00;;;;;24.98;54.26;101258.41;5110392;27;44949;-85
2022/05/19 09:59:15;;;;;;;;;18.50;18.00;;;;;24.98;54.19;101255.72;5110657;27;46075;-83
2022/05/19 10:01:45;;;;;;;;;17.25;15.25;;;;;25.28;54.24;101291.09;5121287;27;45685;-85
2022/05/19 10:04:24;;;;;;;;;16.50;16.50;;;;;25.09;54.05;101212.50;5109020;27;45813;-86
2022/05/19 10:06:57;;;;;;;;;15.75;15.25;;;;;25.67;53.26;101293.06;5111128;27;45060;-86
2022/05/19 10:09:30;;;;;;;;;14.75;13.25;;;;;25.48;52.27;101268.28;5116774;27;45136;-85
2022/05/19 10:12:08;;;;;;;;;15.25;14.75;;;;;25.52;52.24;101306.81;5131518;27;45227;-84
2022/05/19 10:14:35;;;;;;;;;13.50;13.50;;;;;25.38;51.72;101306.16;5131288;27;45299;-85
2022/05/19 10:17:13;;;;;;;;;12.75;12.75;;;;;25.46;51.76;101337.38;5130723;27;45421;-86
2022/05/19 10:19:57;;;;;;;;;13.50;11.50;;;;;25.38;52.10;101343.84;5109810;27;45647;-87
2022/05/19 10:22:47;;;;;;;;;10.00;10.00;;;;;25.28;52.13;101328.78;5107927;27;47915;-85
2022/05/19 10:25:36;;;;;;;;;10.75;10.00;;;;;25.39;51.54;101356.38;5132309;27;45126;-85
2022/05/19 10:31:12;;;;;;;;;7.25;6.50;;;;;25.42;51.35;101365.31;5112753;27;45170;-84
2022/05/19 10:33:51;;;;;;;;;7.25;7.00;;;;;25.46;51.03;101347.28;5113714;27;47439;-82
2022/05/19 10:36:37;;;;;;;;;5.00;5.00;;;;;25.38;51.99;101296.28;5133337;27;45152;-82
2022/05/19 10:39:02;;;;;;;;;7.25;6.00;;;;;25.80;50.28;101344.91;5125447;27;45233;-83
2022/05/19 10:41:40;;;;;;;;;3.25;2.75;;;;;25.86;49.54;101344.81;5094633;27;45446;-83
2022/05/19 10:44:32;;;;;;;;;4.00;4.00;;;;;25.94;49.36;101347.34;5111583;27;46714;-83
2022/05/19 10:47:14;;;;;;;;;4.25;4.00;;;;;25.86;49.14;101300.78;5092754;27;45597;-83
2022/05/19 10:49:45;;;;;;;;;4.25;4.25;;;;;26.38;48.19;101346.44;5131189;27;45150;-83
2022/05/19 10:52:33;;;;;;;;;4.25;4.25;;;;;26.55;47.60;101362.31;5116049;27;45127;-81
2022/05/19 10:55:22;;;;;;;;;4.00;3.75;;;;;26.43;47.62;101305.94;5111593;27;45451;-82
2022/05/19 10:57:59;;;;;;;;;4.00;4.00;;;;;26.72;47.43;101346.63;5106253;27;45201;-83
2022/05/19 11:00:36;;;;;;;;;4.00;4.00;;;;;26.79;46.58;101346.47;5131161;27;45087;-83
2022/05/19 11:03:29;;;;;;;;;3.00;3.00;;;;;26.86;46.38;101337.34;5133783;27;45279;-84
2022/05/19 11:06:09;;;;;;;;;3.25;3.25;;;;;26.91;46.17;101333.59;5133592;27;45474;-84
2022/05/19 11:08:55;;;;;;;;;3.50;3.00;;;;;26.80;46.24;101313.19;5129793;27;45067;-84
2022/05/19 11:11:36;;;;;;;;;3.25;2.25;;;;;26.87;45.97;101322.91;5125661;27;45103;-85
2022/05/19 11:14:29;;;;;;;;;3.00;3.00;;;;;26.86;45.51;101335.50;5133219;27;45243;-84
2022/05/19 11:17:04;;;;;;;;;3.50;2.75;;;;;26.69;45.42;101300.81;5132930;27;46032;-84
2022/05/19 11:19:44;;;;;;;;;2.00;2.00;;;;;26.68;45.11;101308.97;5121931;27;45040;-83
2022/05/19 11:22:13;;;;;;;;;2.75;2.75;;;;;26.69;44.89;101324.22;5123273;27;45043;-84
2022/05/19 11:28:03;;;;;;;;;2.00;2.00;;;;;26.41;45.14;101296.97;5113254;27;45416;-84
2022/05/19 11:30:37;;;;;;;;;2.00;2.00;;;;;26.42;45.78;101302.34;5113982;27;45079;-84
2022/05/19 11:33:11;;;;;;;;;1.25;1.25;;;;;26.44;45.04;101281.63;5094428;27;45200;-84
2022/05/19 11:35:53;;;;;;;;;2.50;2.50;;;;;26.49;45.12;101258.16;5112887;27;45088;-85
2022/05/19 11:38:49;;;;;;;;;2.00;2.00;;;;;26.99;44.29;101317.22;5112011;27;46199;-84